Time,TemperatureF,DewpointF,PressureIn,WindDirection,WindDirectionDegrees,WindSpeedMPH,WindSpeedGustMPH,Humidity,HourlyPrecipIn,Conditions,Clouds,dailyrainin,SoftwareType,DateUTC
2013-08-10 00:01:00,73.5,72.9,29.81,SSW,213,0.0,1.0,98,0.00,,-RA,0.36,VWS V14.00,2013-08-10 04:01:00,
2013-08-10 00:06:00,73.5,72.9,29.81,SSW,213,0.0,0.0,98,0.00,,-RA,0.00,VWS V14.00,2013-08-10 04:06:00,
2013-08-10 00:11:00,73.5,72.9,29.81,SSW,213,0.0,0.0,98,0.00,,-RA,0.00,VWS V14.00,2013-08-10 04:11:00,
2013-08-10 00:16:00,73.4,72.8,29.81,SSW,213,0.0,0.0,98,0.00,,-RA,0.00,VWS V14.00,2013-08-10 04:16:00,
2013-08-10 00:21:00,73.3,72.7,29.81,SSW,213,0.0,1.0,98,0.00,,-RA,0.00,VWS V14.00,2013-08-10 04:21:00,
2013-08-10 00:26:00,73.3,72.7,29.81,SSW,213,0.0,0.0,98,0.00,,-RA,0.00,VWS V14.00,2013-08-10 04:26:00,
2013-08-10 00:31:00,73.1,72.5,29.81,SSW,213,0.0,0.0,98,0.00,,-RA,0.00,VWS V14.00,2013-08-10 04:31:00,
2013-08-10 00:36:00,73.1,72.5,29.81,SSW,213,0.0,0.0,98,0.00,,-RA,0.00,VWS V14.00,2013-08-10 04:36:00,
2013-08-10 00:41:00,73.0,72.4,29.81,SSW,213,0.0,0.0,98,0.00,,-RA,0.00,VWS V14.00,2013-08-10 04:41:00,
2013-08-10 00:46:00,73.0,72.4,29.81,SSW,213,0.0,0.0,98,0.00,,-RA,0.00,VWS V14.00,2013-08-10 04:46:00,
2013-08-10 00:51:00,72.9,72.3,29.81,SSW,213,0.0,0.0,98,0.00,,-RA,0.00,VWS V14.00,2013-08-10 04:51:00,
2013-08-10 00:56:00,72.8,72.2,29.81,SSW,213,0.0,1.0,98,0.00,,-RA,0.00,VWS V14.00,2013-08-10 04:56:00,
2013-08-10 01:01:00,72.7,72.1,29.81,SSW,213,0.0,1.0,98,0.00,,-RA,0.00,VWS V14.00,2013-08-10 05:01:00,
2013-08-10 01:06:00,72.7,72.1,29.81,SSW,213,0.0,0.0,98,0.00,,-RA,0.00,VWS V14.00,2013-08-10 05:06:00,
2013-08-10 01:11:00,72.7,72.1,29.82,SSW,213,0.0,0.0,98,0.00,,-RA,0.00,VWS V14.00,2013-08-10 05:11:00,
2013-08-10 01:16:00,72.6,72.0,29.82,SSW,213,0.0,0.0,98,0.00,,-RA,0.00,VWS V14.00,2013-08-10 05:16:00,
2013-08-10 01:21:00,72.5,71.9,29.82,SSW,213,0.0,0.0,98,0.00,,-RA,0.00,VWS V14.00,2013-08-10 05:21:00,
2013-08-10 01:26:00,72.5,71.9,29.82,SSW,213,0.0,0.0,98,0.00,,-RA,0.00,VWS V14.00,2013-08-10 05:26:00,
2013-08-10 01:31:00,72.4,71.8,29.81,SSW,213,0.0,0.0,98,0.00,,-RA,0.00,VWS V14.00,2013-08-10 05:31:00,
2013-08-10 01:36:00,72.2,71.6,29.81,SSW,213,0.0,0.0,98,0.00,,-RA,0.00,VWS V14.00,2013-08-10 05:36:00,
2013-08-10 01:41:00,72.1,71.5,29.82,SSW,213,0.0,0.0,98,0.00,,-RA,0.00,VWS V14.00,2013-08-10 05:41:00,
2013-08-10 01:46:00,72.1,71.5,29.82,SSW,213,0.0,0.0,98,0.00,,-RA,0.00,VWS V14.00,2013-08-10 05:46:00,
2013-08-10 01:51:00,71.9,71.3,29.82,SSW,213,0.0,0.0,98,0.00,,-RA,0.00,VWS V14.00,2013-08-10 05:51:00,
2013-08-10 01:56:00,71.8,71.2,29.82,SSW,213,0.0,0.0,98,0.00,,-RA,0.00,VWS V14.00,2013-08-10 05:56:00,
2013-08-10 02:01:00,71.7,71.1,29.82,SSW,213,0.0,0.0,98,0.00,,-RA,0.00,VWS V14.00,2013-08-10 06:01:00,
2013-08-10 02:06:00,71.5,70.9,29.82,SSW,213,0.0,0.0,98,0.00,,-RA,0.00,VWS V14.00,2013-08-10 06:06:00,
2013-08-10 02:11:00,71.5,70.9,29.83,SSW,213,0.0,0.0,98,0.00,,-RA,0.00,VWS V14.00,2013-08-10 06:11:00,
2013-08-10 02:16:00,71.6,71.0,29.83,SSW,213,0.0,1.0,98,0.00,,-RA,0.00,VWS V14.00,2013-08-10 06:16:00,
2013-08-10 02:21:00,71.6,71.0,29.83,SSW,213,0.0,0.0,98,0.00,,-RA,0.00,VWS V14.00,2013-08-10 06:21:00,
2013-08-10 02:26:00,71.6,71.0,29.83,SSW,213,0.0,0.0,98,0.00,,-RA,0.00,VWS V14.00,2013-08-10 06:26:00,
2013-08-10 02:31:00,71.5,70.9,29.83,SSW,213,0.0,0.0,98,0.00,,-RA,0.00,VWS V14.00,2013-08-10 06:31:00,
2013-08-10 02:36:00,71.3,70.7,29.83,SSW,213,0.0,2.0,98,0.00,,-RA,0.00,VWS V14.00,2013-08-10 06:36:00,
2013-08-10 02:41:00,71.2,70.6,29.83,SSW,213,0.0,0.0,98,0.00,,-RA,0.00,VWS V14.00,2013-08-10 06:41:00,
2013-08-10 02:46:00,71.1,70.5,29.83,SSW,213,0.0,0.0,98,0.00,,-RA,0.00,VWS V14.00,2013-08-10 06:46:00,
2013-08-10 02:51:00,71.1,70.5,29.83,SSW,213,0.0,0.0,98,0.00,,-RA,0.00,VWS V14.00,2013-08-10 06:51:00,
2013-08-10 02:56:00,71.0,70.4,29.83,SSW,213,0.0,0.0,98,0.00,,-RA,0.00,VWS V14.00,2013-08-10 06:56:00,
2013-08-10 03:01:00,71.0,70.4,29.83,SSW,213,0.0,0.0,98,0.00,,-RA,0.00,VWS V14.00,2013-08-10 07:01:00,
2013-08-10 03:06:00,70.9,70.3,29.83,SSW,213,0.0,0.0,98,0.00,,-RA,0.00,VWS V14.00,2013-08-10 07:06:00,
2013-08-10 03:11:00,70.8,70.2,29.84,SSW,213,0.0,0.0,98,0.00,,-RA,0.00,VWS V14.00,2013-08-10 07:11:00,
2013-08-10 03:16:00,70.7,70.1,29.84,SSW,213,0.0,0.0,98,0.00,,-RA,0.00,VWS V14.00,2013-08-10 07:16:00,
2013-08-10 03:21:00,70.6,70.0,29.84,SSW,213,0.0,0.0,98,0.00,,-RA,0.00,VWS V14.00,2013-08-10 07:21:00,
2013-08-10 03:26:00,70.6,70.0,29.85,SSW,213,0.0,0.0,98,0.00,,-RA,0.00,VWS V14.00,2013-08-10 07:26:00,
2013-08-10 03:31:00,70.6,70.0,29.85,SSW,213,0.0,0.0,98,0.00,,-RA,0.00,VWS V14.00,2013-08-10 07:31:00,
2013-08-10 03:36:00,70.4,69.8,29.85,SSW,213,0.0,0.0,98,0.00,,-RA,0.00,VWS V14.00,2013-08-10 07:36:00,
2013-08-10 03:41:00,70.2,69.6,29.85,SSW,213,0.0,0.0,98,0.00,,-RA,0.00,VWS V14.00,2013-08-10 07:41:00,
2013-08-10 03:46:00,70.1,69.5,29.85,SSW,213,0.0,0.0,98,0.00,,-RA,0.00,VWS V14.00,2013-08-10 07:46:00,
2013-08-10 03:51:00,70.0,69.4,29.86,SSW,213,0.0,0.0,98,0.00,,-RA,0.00,VWS V14.00,2013-08-10 07:51:00,
2013-08-10 03:56:00,69.8,69.2,29.86,SSW,213,0.0,0.0,98,0.00,,-RA,0.00,VWS V14.00,2013-08-10 07:56:00,
2013-08-10 04:01:00,69.8,69.2,29.86,SSW,213,0.0,0.0,98,0.00,,-RA,0.00,VWS V14.00,2013-08-10 08:01:00,
2013-08-10 04:05:00,69.7,69.1,29.86,SSW,213,0.0,0.0,98,0.00,,-RA,0.00,VWS V14.00,2013-08-10 08:05:00,
2013-08-10 04:10:00,69.7,69.1,29.86,SSW,213,0.0,0.0,98,0.00,,-RA,0.00,VWS V14.00,2013-08-10 08:10:00,
2013-08-10 04:15:00,69.8,69.2,29.86,SSW,213,0.0,0.0,98,0.00,,-RA,0.00,VWS V14.00,2013-08-10 08:15:00,
2013-08-10 04:20:00,69.7,69.1,29.87,SSW,213,0.0,0.0,98,0.00,,-RA,0.00,VWS V14.00,2013-08-10 08:20:00,
2013-08-10 04:25:00,69.7,69.1,29.87,SSW,213,0.0,0.0,98,0.00,,-RA,0.00,VWS V14.00,2013-08-10 08:25:00,
2013-08-10 04:30:00,69.8,69.2,29.87,SSW,213,0.0,0.0,98,0.00,,-RA,0.00,VWS V14.00,2013-08-10 08:30:00,
2013-08-10 04:35:00,69.7,69.1,29.87,SSW,213,0.0,0.0,98,0.00,,-RA,0.00,VWS V14.00,2013-08-10 08:35:00,
2013-08-10 04:40:00,69.6,69.0,29.87,SSW,213,0.0,0.0,98,0.00,,-RA,0.00,VWS V14.00,2013-08-10 08:40:00,
2013-08-10 04:45:00,69.5,68.9,29.87,SSW,213,0.0,0.0,98,0.00,,-RA,0.00,VWS V14.00,2013-08-10 08:45:00,
2013-08-10 04:50:00,69.2,68.9,29.87,SSW,213,0.0,0.0,99,0.00,,-RA,0.00,VWS V14.00,2013-08-10 08:50:00,
2013-08-10 04:55:00,69.0,68.4,29.88,SSW,213,0.0,0.0,98,0.00,,-RA,0.00,VWS V14.00,2013-08-10 08:55:00,
2013-08-10 05:00:00,68.6,68.0,29.88,SSW,213,2.0,2.0,98,0.00,,-RA,0.00,VWS V14.00,2013-08-10 09:00:00,
2013-08-10 05:05:00,68.4,67.8,29.88,SSW,213,0.0,0.0,98,0.00,,-RA,0.00,VWS V14.00,2013-08-10 09:05:00,
2013-08-10 05:10:00,68.2,67.6,29.88,SSW,213,0.0,0.0,98,0.00,,-RA,0.00,VWS V14.00,2013-08-10 09:10:00,
2013-08-10 05:15:00,67.9,67.3,29.89,SSW,213,0.0,0.0,98,0.00,,-RA,0.00,VWS V14.00,2013-08-10 09:15:00,
2013-08-10 05:20:00,67.8,67.2,29.89,SSW,213,0.0,0.0,98,0.00,,-RA,0.00,VWS V14.00,2013-08-10 09:20:00,
2013-08-10 05:25:00,67.6,67.0,29.89,SSW,213,0.0,0.0,98,0.00,,-RA,0.00,VWS V14.00,2013-08-10 09:25:00,
2013-08-10 05:30:00,67.4,66.8,29.89,SSW,213,0.0,0.0,98,0.00,,-RA,0.00,VWS V14.00,2013-08-10 09:30:00,
2013-08-10 05:35:00,67.0,66.4,29.89,SSW,213,0.0,0.0,98,0.00,,-RA,0.00,VWS V14.00,2013-08-10 09:35:00,
2013-08-10 05:40:00,66.8,66.2,29.90,SSW,213,0.0,0.0,98,0.00,,-RA,0.00,VWS V14.00,2013-08-10 09:40:00,
2013-08-10 05:45:00,66.8,66.2,29.90,SSW,213,0.0,0.0,98,0.00,,-RA,0.00,VWS V14.00,2013-08-10 09:45:00,
2013-08-10 05:50:00,66.7,66.1,29.90,SSW,213,0.0,0.0,98,0.00,,-RA,0.00,VWS V14.00,2013-08-10 09:50:00,
2013-08-10 05:55:00,66.5,65.9,29.90,SSW,213,0.0,0.0,98,0.00,,-RA,0.00,VWS V14.00,2013-08-10 09:55:00,
2013-08-10 06:00:00,66.3,65.7,29.90,SSW,213,0.0,0.0,98,0.00,,-RA,0.00,VWS V14.00,2013-08-10 10:00:00,
2013-08-10 06:05:00,66.3,65.7,29.90,SSW,213,0.0,0.0,98,0.00,,-RA,0.00,VWS V14.00,2013-08-10 10:05:00,
2013-08-10 06:10:00,66.2,65.6,29.91,SSW,213,0.0,0.0,98,0.00,,-RA,0.00,VWS V14.00,2013-08-10 10:10:00,
2013-08-10 06:15:00,66.1,65.5,29.91,SSW,213,0.0,0.0,98,0.00,,-RA,0.00,VWS V14.00,2013-08-10 10:15:00,
2013-08-10 06:20:00,66.1,65.5,29.91,SSW,213,0.0,0.0,98,0.01,,-RA,0.01,VWS V14.00,2013-08-10 10:20:00,
2013-08-10 06:25:00,66.0,65.4,29.91,SSW,213,0.0,0.0,98,0.01,,-RA,0.01,VWS V14.00,2013-08-10 10:25:00,
2013-08-10 06:30:00,65.9,65.3,29.91,SSW,213,0.0,0.0,98,0.01,,-RA,0.01,VWS V14.00,2013-08-10 10:30:00,
2013-08-10 06:35:00,65.8,65.2,29.91,SSW,213,0.0,0.0,98,0.01,,-RA,0.01,VWS V14.00,2013-08-10 10:35:00,
2013-08-10 06:40:00,65.7,65.1,29.91,SSW,213,0.0,0.0,98,0.01,,-RA,0.01,VWS V14.00,2013-08-10 10:40:00,
2013-08-10 06:45:00,65.8,65.2,29.91,SSW,213,0.0,0.0,98,0.01,,-RA,0.01,VWS V14.00,2013-08-10 10:45:00,
2013-08-10 06:50:00,65.8,65.2,29.91,SSW,213,0.0,0.0,98,0.01,,-RA,0.01,VWS V14.00,2013-08-10 10:50:00,
2013-08-10 06:55:00,66.0,65.7,29.92,SSW,213,0.0,0.0,99,0.01,,-RA,0.01,VWS V14.00,2013-08-10 10:55:00,
2013-08-10 07:00:00,66.4,65.8,29.92,SSW,213,0.0,0.0,98,0.01,,-RA,0.01,VWS V14.00,2013-08-10 11:00:00,
2013-08-10 07:05:00,66.7,66.4,29.92,SSW,213,0.0,0.0,99,0.01,,-RA,0.01,VWS V14.00,2013-08-10 11:05:00,
2013-08-10 07:10:00,67.2,66.9,29.92,SSW,213,0.0,0.0,99,0.01,,-RA,0.01,VWS V14.00,2013-08-10 11:10:00,
2013-08-10 07:15:00,67.7,67.4,29.92,SSW,213,0.0,0.0,99,0.01,,-RA,0.01,VWS V14.00,2013-08-10 11:15:00,
2013-08-10 07:20:00,67.6,67.3,29.92,SSW,213,0.0,0.0,99,0.00,,-RA,0.01,VWS V14.00,2013-08-10 11:20:00,
2013-08-10 07:25:00,67.6,67.0,29.92,SSW,213,0.0,0.0,98,0.00,,-RA,0.01,VWS V14.00,2013-08-10 11:25:00,
2013-08-10 07:30:00,68.0,67.7,29.92,SSW,213,0.0,1.0,99,0.00,,-RA,0.01,VWS V14.00,2013-08-10 11:30:00,
2013-08-10 07:35:00,68.3,67.7,29.92,SSW,213,0.0,0.0,98,0.00,,-RA,0.01,VWS V14.00,2013-08-10 11:35:00,
2013-08-10 07:40:00,68.6,68.0,29.92,SSW,213,0.0,2.0,98,0.00,,-RA,0.01,VWS V14.00,2013-08-10 11:40:00,
2013-08-10 07:45:00,69.0,68.4,29.92,SSW,213,0.0,0.0,98,0.00,,-RA,0.01,VWS V14.00,2013-08-10 11:45:00,
2013-08-10 07:50:00,69.5,68.9,29.92,SSW,213,0.0,1.0,98,0.00,,-RA,0.01,VWS V14.00,2013-08-10 11:50:00,
2013-08-10 07:55:00,69.8,68.9,29.92,SSW,213,0.0,0.0,97,0.00,,-RA,0.01,VWS V14.00,2013-08-10 11:55:00,
2013-08-10 08:00:00,70.3,69.1,29.92,SSW,213,0.0,0.0,96,0.00,,-RA,0.01,VWS V14.00,2013-08-10 12:00:00,
2013-08-10 08:05:00,70.7,69.5,29.93,SSW,213,0.0,0.0,96,0.00,,-RA,0.01,VWS V14.00,2013-08-10 12:05:00,
2013-08-10 08:10:00,70.9,69.1,29.92,SSW,213,0.0,1.0,94,0.00,,-RA,0.01,VWS V14.00,2013-08-10 12:10:00,
2013-08-10 08:15:00,71.4,69.3,29.93,SSW,213,0.0,0.0,93,0.00,,-RA,0.01,VWS V14.00,2013-08-10 12:15:00,
2013-08-10 08:20:00,71.9,69.1,29.93,SSW,213,0.0,0.0,91,0.00,,-RA,0.01,VWS V14.00,2013-08-10 12:20:00,
2013-08-10 08:25:00,72.5,69.1,29.93,SSW,213,0.0,1.0,89,0.00,,-RA,0.01,VWS V14.00,2013-08-10 12:25:00,
2013-08-10 08:30:00,73.1,69.3,29.93,SSW,213,0.0,1.0,88,0.00,,-RA,0.01,VWS V14.00,2013-08-10 12:30:00,
2013-08-10 08:35:00,73.7,69.3,29.93,SSW,213,0.0,0.0,86,0.00,,-RA,0.01,VWS V14.00,2013-08-10 12:35:00,
2013-08-10 08:40:00,74.0,68.9,29.93,SSW,213,0.0,0.0,84,0.00,,-RA,0.01,VWS V14.00,2013-08-10 12:40:00,
2013-08-10 08:45:00,74.1,69.3,29.93,SSW,213,0.0,0.0,85,0.00,,-RA,0.01,VWS V14.00,2013-08-10 12:45:00,
2013-08-10 08:50:00,74.5,69.3,29.93,SSW,213,0.0,2.0,84,0.00,,-RA,0.01,VWS V14.00,2013-08-10 12:50:00,
2013-08-10 08:55:00,74.8,68.9,29.93,SSW,213,0.0,5.0,82,0.00,,-RA,0.01,VWS V14.00,2013-08-10 12:55:00,
2013-08-10 09:00:00,75.1,69.2,29.92,SSW,213,0.0,0.0,82,0.00,,-RA,0.01,VWS V14.00,2013-08-10 13:00:00,
2013-08-10 09:05:00,75.7,69.8,29.93,SSW,213,0.0,1.0,82,0.00,,CLR,0.01,VWS V14.00,2013-08-10 13:05:00,
2013-08-10 09:10:00,75.8,69.2,29.93,SSW,213,0.0,0.0,80,0.00,,CLR,0.01,VWS V14.00,2013-08-10 13:10:00,
2013-08-10 09:15:00,75.7,69.1,29.93,SSW,213,0.0,2.0,80,0.00,,CLR,0.01,VWS V14.00,2013-08-10 13:15:00,
2013-08-10 09:20:00,75.8,69.9,29.93,SSW,213,0.0,0.0,82,0.00,,CLR,0.01,VWS V14.00,2013-08-10 13:20:00,
2013-08-10 09:25:00,76.1,69.1,29.93,SSW,213,0.0,4.0,79,0.00,,CLR,0.01,VWS V14.00,2013-08-10 13:25:00,
2013-08-10 09:30:00,76.5,69.5,29.93,SSW,213,0.0,1.0,79,0.00,,CLR,0.01,VWS V14.00,2013-08-10 13:30:00,
2013-08-10 09:35:00,77.0,69.2,29.93,SSE,148,0.0,1.0,77,0.00,,CLR,0.01,VWS V14.00,2013-08-10 13:35:00,
2013-08-10 09:40:00,77.1,68.6,29.93,SSE,148,0.0,0.0,75,0.00,,CLR,0.01,VWS V14.00,2013-08-10 13:40:00,
2013-08-10 09:45:00,77.4,68.9,29.93,SSE,147,0.0,1.0,75,0.00,,CLR,0.01,VWS V14.00,2013-08-10 13:45:00,
2013-08-10 09:50:00,78.0,69.4,29.93,SSE,147,0.0,0.0,75,0.00,,CLR,0.01,VWS V14.00,2013-08-10 13:50:00,
2013-08-10 09:55:00,77.8,67.7,29.94,NNE,15,2.0,4.0,71,0.00,,CLR,0.01,VWS V14.00,2013-08-10 13:55:00,
2013-08-10 10:00:00,77.3,68.8,29.94,NNE,19,0.0,2.0,75,0.00,,CLR,0.01,VWS V14.00,2013-08-10 14:00:00,
2013-08-10 10:05:00,77.5,68.2,29.94,NE,38,0.0,3.0,73,0.00,,CLR,0.01,VWS V14.00,2013-08-10 14:05:00,
2013-08-10 10:10:00,77.9,67.8,29.94,NE,47,0.0,5.0,71,0.00,,CLR,0.01,VWS V14.00,2013-08-10 14:10:00,
2013-08-10 10:15:00,77.6,67.1,29.94,ESE,106,2.0,6.0,70,0.00,,CLR,0.01,VWS V14.00,2013-08-10 14:15:00,
2013-08-10 10:20:00,77.8,67.7,29.94,ESE,105,0.0,3.0,71,0.00,,CLR,0.01,VWS V14.00,2013-08-10 14:20:00,
2013-08-10 10:25:00,77.8,67.7,29.94,East,98,0.0,3.0,71,0.00,,CLR,0.01,VWS V14.00,2013-08-10 14:25:00,
2013-08-10 10:30:00,77.6,67.1,29.93,ESE,119,0.0,0.0,70,0.00,,CLR,0.01,VWS V14.00,2013-08-10 14:30:00,
2013-08-10 10:35:00,78.0,67.4,29.94,ESE,119,0.0,1.0,70,0.00,,CLR,0.01,VWS V14.00,2013-08-10 14:35:00,
2013-08-10 10:40:00,78.3,67.7,29.94,SE,138,3.0,3.0,70,0.00,,CLR,0.01,VWS V14.00,2013-08-10 14:40:00,
2013-08-10 10:45:00,78.8,68.6,29.93,SE,138,0.0,2.0,71,0.00,,CLR,0.01,VWS V14.00,2013-08-10 14:45:00,
2013-08-10 10:50:00,79.4,68.3,29.93,SSW,213,9.0,10.0,69,0.00,,CLR,0.01,VWS V14.00,2013-08-10 14:50:00,
2013-08-10 10:55:00,79.7,67.8,29.93,SW,225,0.0,2.0,67,0.00,,CLR,0.01,VWS V14.00,2013-08-10 14:55:00,
2013-08-10 11:00:00,79.7,67.8,29.93,SW,223,0.0,0.0,67,0.00,,CLR,0.01,VWS V14.00,2013-08-10 15:00:00,
2013-08-10 11:05:00,79.6,66.4,29.93,SSW,211,0.0,1.0,64,0.00,,CLR,0.01,VWS V14.00,2013-08-10 15:05:00,
2013-08-10 11:10:00,79.8,67.4,29.93,SSW,211,0.0,0.0,66,0.00,,CLR,0.01,VWS V14.00,2013-08-10 15:10:00,
2013-08-10 11:15:00,79.8,66.1,29.93,SSW,201,0.0,1.0,63,0.00,,CLR,0.01,VWS V14.00,2013-08-10 15:15:00,
2013-08-10 11:20:00,79.9,67.1,29.92,SSW,202,0.0,4.0,65,0.00,,CLR,0.01,VWS V14.00,2013-08-10 15:20:00,
2013-08-10 11:25:00,80.1,66.8,29.92,East,79,4.0,6.0,64,0.00,,CLR,0.01,VWS V14.00,2013-08-10 15:25:00,
2013-08-10 11:30:00,80.3,66.6,29.92,South,186,0.0,4.0,63,0.00,,CLR,0.01,VWS V14.00,2013-08-10 15:30:00,
2013-08-10 11:35:00,80.6,67.8,29.92,WSW,237,6.0,10.0,65,0.00,,CLR,0.01,VWS V14.00,2013-08-10 15:35:00,
2013-08-10 11:40:00,80.2,66.5,29.93,SW,232,0.0,3.0,63,0.00,,CLR,0.01,VWS V14.00,2013-08-10 15:40:00,
2013-08-10 11:45:00,80.2,67.8,29.93,SW,220,0.0,7.0,66,0.00,,CLR,0.01,VWS V14.00,2013-08-10 15:45:00,
2013-08-10 11:50:00,80.6,68.2,29.93,SW,221,3.0,4.0,66,0.00,,CLR,0.01,VWS V14.00,2013-08-10 15:50:00,
2013-08-10 11:55:00,80.7,67.8,29.93,SW,228,1.0,5.0,65,0.00,,CLR,0.01,VWS V14.00,2013-08-10 15:55:00,
2013-08-10 12:00:00,80.0,67.6,29.93,SSW,213,4.0,4.0,66,0.00,,CLR,0.01,VWS V14.00,2013-08-10 16:00:00,
2013-08-10 12:05:00,78.8,67.4,29.93,SW,219,5.0,6.0,68,0.00,,CLR,0.01,VWS V14.00,2013-08-10 16:05:00,
2013-08-10 12:10:00,77.5,68.6,29.93,SSW,200,7.0,11.0,74,0.00,,CLR,0.01,VWS V14.00,2013-08-10 16:10:00,
2013-08-10 12:15:00,76.7,68.6,29.93,SSW,213,9.0,12.0,76,0.00,,CLR,0.01,VWS V14.00,2013-08-10 16:15:00,
2013-08-10 12:20:00,76.9,68.8,29.93,SW,216,9.0,14.0,76,0.00,,CLR,0.01,VWS V14.00,2013-08-10 16:20:00,
2013-08-10 12:25:00,76.7,69.3,29.93,SW,230,13.0,15.0,78,0.00,,CLR,0.01,VWS V14.00,2013-08-10 16:25:00,
2013-08-10 12:30:00,76.2,69.9,29.93,SSW,207,7.0,12.0,81,0.00,,CLR,0.01,VWS V14.00,2013-08-10 16:30:00,
2013-08-10 12:35:00,76.4,70.1,29.93,SW,215,5.0,10.0,81,0.00,,CLR,0.01,VWS V14.00,2013-08-10 16:35:00,
2013-08-10 12:40:00,76.5,69.1,29.93,SW,217,4.0,10.0,78,0.00,,CLR,0.01,VWS V14.00,2013-08-10 16:40:00,
2013-08-10 12:45:00,76.3,69.3,29.93,SW,217,4.0,8.0,79,0.00,,CLR,0.01,VWS V14.00,2013-08-10 16:45:00,
2013-08-10 12:50:00,76.0,69.8,29.93,SW,221,4.0,15.0,81,0.00,,CLR,0.01,VWS V14.00,2013-08-10 16:50:00,
2013-08-10 12:55:00,75.9,70.0,29.93,SW,235,5.0,12.0,82,0.00,,CLR,0.01,VWS V14.00,2013-08-10 16:55:00,
2013-08-10 12:59:00,76.1,70.6,29.93,SW,222,6.0,12.0,83,0.00,,CLR,0.01,VWS V14.00,2013-08-10 16:59:00,
2013-08-10 13:04:00,76.3,70.8,29.93,SW,222,10.0,16.0,83,0.00,,CLR,0.01,VWS V14.00,2013-08-10 17:04:00,
2013-08-10 13:09:00,76.3,70.8,29.93,SSW,210,5.0,9.0,83,0.00,,CLR,0.01,VWS V14.00,2013-08-10 17:09:00,
2013-08-10 13:14:00,76.5,70.6,29.93,SW,214,4.0,11.0,82,0.00,,CLR,0.01,VWS V14.00,2013-08-10 17:14:00,
2013-08-10 13:19:00,76.4,70.9,29.93,SW,221,5.0,9.0,83,0.00,,CLR,0.01,VWS V14.00,2013-08-10 17:19:00,
2013-08-10 13:24:00,76.5,71.0,29.93,SW,226,2.0,6.0,83,0.00,,CLR,0.01,VWS V14.00,2013-08-10 17:24:00,
2013-08-10 13:29:00,77.1,71.2,29.93,SSW,209,10.0,13.0,82,0.00,,CLR,0.01,VWS V14.00,2013-08-10 17:29:00,
2013-08-10 13:34:00,77.0,70.7,29.93,SW,220,8.0,13.0,81,0.00,,CLR,0.01,VWS V14.00,2013-08-10 17:34:00,
2013-08-10 13:39:00,76.8,70.9,29.93,SW,217,5.0,13.0,82,0.00,,CLR,0.01,VWS V14.00,2013-08-10 17:39:00,
2013-08-10 13:44:00,76.8,71.2,29.93,SW,219,7.0,14.0,83,0.00,,CLR,0.01,VWS V14.00,2013-08-10 17:44:00,
2013-08-10 13:49:00,76.3,70.4,29.93,SW,232,7.0,9.0,82,0.00,,CLR,0.01,VWS V14.00,2013-08-10 17:49:00,
2013-08-10 13:54:00,75.4,69.5,29.93,SW,219,3.0,7.0,82,0.00,,CLR,0.01,VWS V14.00,2013-08-10 17:54:00,
2013-08-10 13:59:00,75.3,69.8,29.93,SW,233,7.0,13.0,83,0.00,,CLR,0.01,VWS V14.00,2013-08-10 17:59:00,
2013-08-10 14:04:00,75.1,69.6,29.93,SW,227,5.0,10.0,83,0.00,,FEW050,0.01,VWS V14.00,2013-08-10 18:04:00,
2013-08-10 14:09:00,75.2,69.7,29.92,SW,220,5.0,12.0,83,0.00,,FEW050,0.01,VWS V14.00,2013-08-10 18:09:00,
2013-08-10 14:14:00,75.5,69.6,29.92,SW,233,10.0,10.0,82,0.00,,FEW050,0.01,VWS V14.00,2013-08-10 18:14:00,
2013-08-10 14:19:00,75.4,69.2,29.93,WSW,239,11.0,13.0,81,0.00,,FEW050,0.01,VWS V14.00,2013-08-10 18:19:00,
2013-08-10 14:24:00,75.3,69.1,29.93,SW,216,7.0,9.0,81,0.00,,FEW050,0.01,VWS V14.00,2013-08-10 18:24:00,
2013-08-10 14:29:00,76.2,69.6,29.93,SW,219,8.0,9.0,80,0.00,,FEW050,0.01,VWS V14.00,2013-08-10 18:29:00,
2013-08-10 14:34:00,76.8,69.4,29.92,SW,225,13.0,13.0,78,0.00,,FEW050,0.01,VWS V14.00,2013-08-10 18:34:00,
2013-08-10 14:39:00,76.7,69.7,29.92,SW,215,6.0,11.0,79,0.00,,FEW050,0.01,VWS V14.00,2013-08-10 18:39:00,
2013-08-10 14:44:00,76.9,70.3,29.93,SW,230,5.0,9.0,80,0.00,,FEW050,0.01,VWS V14.00,2013-08-10 18:44:00,
2013-08-10 14:49:00,76.8,69.8,29.92,SSW,209,6.0,11.0,79,0.00,,FEW050,0.01,VWS V14.00,2013-08-10 18:49:00,
2013-08-10 14:54:00,77.0,70.0,29.92,SW,221,6.0,12.0,79,0.00,,FEW050,0.01,VWS V14.00,2013-08-10 18:54:00,
2013-08-10 14:59:00,76.9,69.5,29.92,SSW,211,10.0,10.0,78,0.00,,FEW050,0.01,VWS V14.00,2013-08-10 18:59:00,
2013-08-10 15:04:00,76.9,70.3,29.93,SSW,206,3.0,6.0,80,0.00,,CLR,0.01,VWS V14.00,2013-08-10 19:04:00,
2013-08-10 15:09:00,76.9,69.9,29.92,SW,229,9.0,10.0,79,0.00,,CLR,0.01,VWS V14.00,2013-08-10 19:09:00,
2013-08-10 15:14:00,76.7,69.7,29.93,WSW,240,0.0,6.0,79,0.00,,CLR,0.01,VWS V14.00,2013-08-10 19:14:00,
2013-08-10 15:19:00,76.7,69.7,29.93,SW,222,5.0,12.0,79,0.00,,CLR,0.01,VWS V14.00,2013-08-10 19:19:00,
2013-08-10 15:24:00,76.6,70.0,29.93,SW,226,6.0,8.0,80,0.00,,CLR,0.01,VWS V14.00,2013-08-10 19:24:00,
2013-08-10 15:29:00,76.6,70.0,29.92,SW,219,7.0,10.0,80,0.00,,CLR,0.01,VWS V14.00,2013-08-10 19:29:00,
2013-08-10 15:34:00,76.5,69.5,29.93,SW,236,4.0,11.0,79,0.00,,CLR,0.01,VWS V14.00,2013-08-10 19:34:00,
2013-08-10 15:39:00,76.4,69.8,29.93,SW,230,2.0,11.0,80,0.00,,CLR,0.01,VWS V14.00,2013-08-10 19:39:00,
2013-08-10 15:44:00,76.7,69.7,29.92,SW,226,3.0,10.0,79,0.00,,CLR,0.01,VWS V14.00,2013-08-10 19:44:00,
2013-08-10 15:49:00,76.8,69.8,29.92,SW,219,3.0,11.0,79,0.00,,CLR,0.01,VWS V14.00,2013-08-10 19:49:00,
2013-08-10 15:54:00,77.1,70.8,29.92,SW,236,9.0,10.0,81,0.00,,CLR,0.01,VWS V14.00,2013-08-10 19:54:00,
2013-08-10 15:59:00,77.5,70.8,29.92,SW,224,3.0,7.0,80,0.00,,CLR,0.01,VWS V14.00,2013-08-10 19:59:00,
2013-08-10 16:04:00,77.6,70.6,29.92,SW,234,8.0,9.0,79,0.00,,CLR,0.01,VWS V14.00,2013-08-10 20:04:00,
2013-08-10 16:09:00,77.5,70.8,29.92,WSW,238,13.0,13.0,80,0.00,,CLR,0.01,VWS V14.00,2013-08-10 20:09:00,
2013-08-10 16:14:00,77.6,70.9,29.92,SW,216,7.0,11.0,80,0.00,,CLR,0.01,VWS V14.00,2013-08-10 20:14:00,
2013-08-10 16:19:00,77.5,70.8,29.92,SW,227,7.0,11.0,80,0.00,,CLR,0.01,VWS V14.00,2013-08-10 20:19:00,
2013-08-10 16:24:00,77.3,70.3,29.92,SW,225,10.0,13.0,79,0.00,,CLR,0.01,VWS V14.00,2013-08-10 20:24:00,
2013-08-10 16:29:00,77.2,70.6,29.92,SW,226,3.0,7.0,80,0.00,,CLR,0.01,VWS V14.00,2013-08-10 20:29:00,
2013-08-10 16:34:00,77.5,70.5,29.92,WSW,242,10.0,10.0,79,0.00,,CLR,0.01,VWS V14.00,2013-08-10 20:34:00,
2013-08-10 16:39:00,77.6,70.2,29.92,SW,231,7.0,12.0,78,0.00,,CLR,0.01,VWS V14.00,2013-08-10 20:39:00,
2013-08-10 16:44:00,77.5,70.1,29.92,SW,233,10.0,10.0,78,0.00,,CLR,0.01,VWS V14.00,2013-08-10 20:44:00,
2013-08-10 16:49:00,77.3,70.3,29.92,WSW,240,3.0,9.0,79,0.00,,CLR,0.01,VWS V14.00,2013-08-10 20:49:00,
2013-08-10 16:54:00,77.4,70.8,29.92,WSW,238,6.0,8.0,80,0.00,,CLR,0.01,VWS V14.00,2013-08-10 20:54:00,
2013-08-10 16:59:00,77.8,71.1,29.92,WSW,240,8.0,9.0,80,0.00,,CLR,0.01,VWS V14.00,2013-08-10 20:59:00,
2013-08-10 17:04:00,77.6,70.9,29.92,SW,219,4.0,5.0,80,0.00,,SCT035,0.01,VWS V14.00,2013-08-10 21:04:00,
2013-08-10 17:09:00,77.6,70.6,29.92,WSW,244,3.0,9.0,79,0.00,,SCT035,0.01,VWS V14.00,2013-08-10 21:09:00,
2013-08-10 17:14:00,77.1,70.5,29.92,SW,225,11.0,11.0,80,0.00,,SCT035,0.01,VWS V14.00,2013-08-10 21:14:00,
2013-08-10 17:19:00,77.0,70.7,29.92,SSW,210,4.0,11.0,81,0.00,,SCT035,0.01,VWS V14.00,2013-08-10 21:19:00,
2013-08-10 17:24:00,77.0,70.7,29.92,SW,219,8.0,11.0,81,0.00,,SCT035,0.01,VWS V14.00,2013-08-10 21:24:00,
2013-08-10 17:29:00,77.1,70.5,29.92,SW,222,10.0,13.0,80,0.00,,SCT035,0.01,VWS V14.00,2013-08-10 21:29:00,
2013-08-10 17:34:00,77.1,69.7,29.92,SW,223,7.0,10.0,78,0.00,,SCT035,0.01,VWS V14.00,2013-08-10 21:34:00,
2013-08-10 17:39:00,77.2,69.8,29.92,SW,229,5.0,10.0,78,0.00,,SCT035,0.01,VWS V14.00,2013-08-10 21:39:00,
2013-08-10 17:44:00,77.3,69.5,29.92,SW,227,3.0,10.0,77,0.00,,SCT035,0.01,VWS V14.00,2013-08-10 21:44:00,
2013-08-10 17:49:00,77.4,70.0,29.92,SW,215,5.0,6.0,78,0.00,,SCT035,0.01,VWS V14.00,2013-08-10 21:49:00,
2013-08-10 17:54:00,77.4,69.6,29.92,SW,214,6.0,6.0,77,0.00,,SCT035,0.01,VWS V14.00,2013-08-10 21:54:00,
2013-08-10 17:59:00,77.0,69.6,29.92,SW,233,6.0,9.0,78,0.00,,SCT035,0.01,VWS V14.00,2013-08-10 21:59:00,
2013-08-10 18:04:00,76.7,69.3,29.92,SW,227,5.0,12.0,78,0.00,,SCT035,0.01,VWS V14.00,2013-08-10 22:04:00,
2013-08-10 18:09:00,76.3,69.3,29.92,SW,226,7.0,11.0,79,0.00,,SCT035,0.01,VWS V14.00,2013-08-10 22:09:00,
2013-08-10 18:14:00,76.0,69.0,29.92,SW,221,0.0,4.0,79,0.00,,SCT035,0.01,VWS V14.00,2013-08-10 22:14:00,
2013-08-10 18:19:00,76.1,69.5,29.93,SW,222,7.0,10.0,80,0.00,,SCT035,0.01,VWS V14.00,2013-08-10 22:19:00,
2013-08-10 18:24:00,76.0,69.0,29.92,SSW,213,0.0,5.0,79,0.00,,SCT035,0.01,VWS V14.00,2013-08-10 22:24:00,
2013-08-10 18:29:00,76.0,69.0,29.92,SW,222,1.0,5.0,79,0.00,,SCT035,0.01,VWS V14.00,2013-08-10 22:29:00,
2013-08-10 18:34:00,76.0,69.0,29.92,SSW,205,0.0,0.0,79,0.00,,SCT035,0.01,VWS V14.00,2013-08-10 22:34:00,
2013-08-10 18:39:00,76.1,68.8,29.92,SSW,212,6.0,7.0,78,0.00,,SCT035,0.01,VWS V14.00,2013-08-10 22:39:00,
2013-08-10 18:44:00,76.1,68.4,29.92,SW,215,3.0,3.0,77,0.00,,SCT035,0.01,VWS V14.00,2013-08-10 22:44:00,
2013-08-10 18:49:00,76.0,67.9,29.92,SW,230,0.0,4.0,76,0.00,,SCT035,0.01,VWS V14.00,2013-08-10 22:49:00,
2013-08-10 18:54:00,76.0,67.9,29.92,SW,231,0.0,1.0,76,0.00,,SCT035,0.01,VWS V14.00,2013-08-10 22:54:00,
2013-08-10 18:59:00,75.9,68.2,29.92,SW,221,1.0,7.0,77,0.00,,SCT035,0.01,VWS V14.00,2013-08-10 22:59:00,
2013-08-10 19:04:00,75.8,68.5,29.93,SW,226,2.0,7.0,78,0.00,,BKN065,0.01,VWS V14.00,2013-08-10 23:04:00,
2013-08-10 19:09:00,75.8,68.5,29.92,SW,224,6.0,6.0,78,0.00,,BKN065,0.01,VWS V14.00,2013-08-10 23:09:00,
2013-08-10 19:14:00,75.8,68.5,29.93,SW,222,4.0,5.0,78,0.00,,BKN065,0.01,VWS V14.00,2013-08-10 23:14:00,
2013-08-10 19:19:00,75.7,69.1,29.93,SW,222,2.0,3.0,80,0.00,,BKN065,0.01,VWS V14.00,2013-08-10 23:19:00,
2013-08-10 19:24:00,75.6,69.0,29.93,SW,223,0.0,5.0,80,0.00,,BKN065,0.01,VWS V14.00,2013-08-10 23:24:00,
2013-08-10 19:29:00,75.5,69.3,29.93,SW,223,2.0,5.0,81,0.00,,BKN065,0.01,VWS V14.00,2013-08-10 23:29:00,
2013-08-10 19:34:00,75.4,69.5,29.94,SW,223,0.0,0.0,82,0.00,,BKN065,0.01,VWS V14.00,2013-08-10 23:34:00,
2013-08-10 19:39:00,75.2,69.3,29.94,SW,223,0.0,0.0,82,0.00,,BKN065,0.01,VWS V14.00,2013-08-10 23:39:00,
2013-08-10 19:44:00,75.0,69.1,29.94,SW,223,0.0,0.0,82,0.00,,BKN065,0.01,VWS V14.00,2013-08-10 23:44:00,
2013-08-10 19:49:00,74.7,69.2,29.94,West,259,0.0,1.0,83,0.00,,BKN065,0.01,VWS V14.00,2013-08-10 23:49:00,
2013-08-10 19:53:00,74.4,68.9,29.95,West,259,0.0,0.0,83,0.00,,BKN065,0.01,VWS V14.00,2013-08-10 23:53:00,
2013-08-10 19:58:00,74.3,68.4,29.95,West,259,0.0,0.0,82,0.00,,BKN065,0.01,VWS V14.00,2013-08-10 23:58:00,
2013-08-10 20:03:00,74.1,68.3,29.94,West,259,0.0,2.0,82,0.00,,BKN050,0.01,VWS V14.00,2013-08-11 00:03:00,
2013-08-10 20:08:00,74.0,67.4,29.95,West,261,0.0,0.0,80,0.00,,BKN050,0.01,VWS V14.00,2013-08-11 00:08:00,
2013-08-10 20:13:00,74.0,67.4,29.95,West,261,0.0,0.0,80,0.00,,BKN050,0.01,VWS V14.00,2013-08-11 00:13:00,
2013-08-10 20:18:00,73.9,67.0,29.95,West,261,0.0,0.0,79,0.00,,BKN050,0.01,VWS V14.00,2013-08-11 00:18:00,
2013-08-10 20:23:00,73.7,66.8,29.96,West,261,0.0,0.0,79,0.00,,BKN050,0.01,VWS V14.00,2013-08-11 00:23:00,
2013-08-10 20:28:00,73.4,66.5,29.96,West,261,0.0,0.0,79,0.00,,BKN050,0.01,VWS V14.00,2013-08-11 00:28:00,
2013-08-10 20:33:00,73.1,66.6,29.96,West,261,0.0,0.0,80,0.00,,BKN050,0.01,VWS V14.00,2013-08-11 00:33:00,
2013-08-10 20:38:00,72.7,66.2,29.97,West,261,0.0,0.0,80,0.00,,BKN050,0.01,VWS V14.00,2013-08-11 00:38:00,
2013-08-10 20:43:00,72.3,65.4,29.97,West,269,2.0,3.0,79,0.00,,BKN050,0.01,VWS V14.00,2013-08-11 00:43:00,
2013-08-10 20:48:00,72.2,65.7,29.97,West,269,0.0,0.0,80,0.00,,BKN050,0.01,VWS V14.00,2013-08-11 00:48:00,
2013-08-10 20:53:00,72.0,65.5,29.98,West,268,0.0,0.0,80,0.00,,BKN050,0.01,VWS V14.00,2013-08-11 00:53:00,
2013-08-10 20:58:00,72.0,65.1,29.98,West,269,1.0,1.0,79,0.00,,BKN050,0.01,VWS V14.00,2013-08-11 00:58:00,
2013-08-10 21:03:00,71.9,65.0,29.98,West,268,0.0,0.0,79,0.00,,FEW060,0.01,VWS V14.00,2013-08-11 01:03:00,
2013-08-10 21:08:00,71.8,64.2,29.98,West,269,0.0,0.0,77,0.00,,FEW060,0.01,VWS V14.00,2013-08-11 01:08:00,
2013-08-10 21:13:00,71.8,63.8,29.99,West,275,5.0,5.0,76,0.00,,FEW060,0.01,VWS V14.00,2013-08-11 01:13:00,
2013-08-10 21:18:00,71.9,63.5,29.99,West,281,0.0,0.0,75,0.00,,FEW060,0.01,VWS V14.00,2013-08-11 01:18:00,
2013-08-10 21:23:00,71.8,63.1,29.99,WNW,284,3.0,3.0,74,0.00,,FEW060,0.01,VWS V14.00,2013-08-11 01:23:00,
2013-08-10 21:28:00,71.9,63.2,29.99,WNW,284,0.0,1.0,74,0.00,,FEW060,0.01,VWS V14.00,2013-08-11 01:28:00,
2013-08-10 21:33:00,71.7,62.2,29.99,WNW,284,3.0,3.0,72,0.00,,FEW060,0.01,VWS V14.00,2013-08-11 01:33:00,
2013-08-10 21:38:00,71.6,62.1,29.99,WNW,285,0.0,5.0,72,0.00,,FEW060,0.01,VWS V14.00,2013-08-11 01:38:00,
2013-08-10 21:43:00,71.6,61.7,29.99,WNW,285,0.0,3.0,71,0.00,,FEW060,0.01,VWS V14.00,2013-08-11 01:43:00,
2013-08-10 21:48:00,71.4,61.5,30.00,WNW,286,3.0,3.0,71,0.00,,FEW060,0.01,VWS V14.00,2013-08-11 01:48:00,
2013-08-10 21:53:00,71.2,61.3,30.00,WNW,284,2.0,4.0,71,0.00,,FEW060,0.01,VWS V14.00,2013-08-11 01:53:00,
2013-08-10 21:58:00,70.8,60.9,30.00,WNW,286,0.0,4.0,71,0.00,,FEW060,0.01,VWS V14.00,2013-08-11 01:58:00,
2013-08-10 22:03:00,70.6,60.8,30.00,WNW,286,0.0,5.0,71,0.00,,FEW070,0.01,VWS V14.00,2013-08-11 02:03:00,
2013-08-10 22:08:00,70.4,60.6,30.00,WNW,286,0.0,4.0,71,0.00,,FEW070,0.01,VWS V14.00,2013-08-11 02:08:00,
2013-08-10 22:13:00,70.3,60.9,30.00,WNW,286,0.0,3.0,72,0.00,,FEW070,0.01,VWS V14.00,2013-08-11 02:13:00,
2013-08-10 22:18:00,69.9,60.9,30.00,WNW,286,0.0,0.0,73,0.00,,FEW070,0.01,VWS V14.00,2013-08-11 02:18:00,
2013-08-10 22:23:00,69.6,61.0,30.00,WNW,286,0.0,0.0,74,0.00,,FEW070,0.01,VWS V14.00,2013-08-11 02:23:00,
2013-08-10 22:28:00,69.3,60.7,30.01,WNW,286,1.0,4.0,74,0.00,,FEW070,0.01,VWS V14.00,2013-08-11 02:28:00,
2013-08-10 22:33:00,69.0,60.8,30.00,WNW,286,0.0,4.0,75,0.00,,FEW070,0.01,VWS V14.00,2013-08-11 02:33:00,
2013-08-10 22:38:00,68.8,60.6,30.01,WNW,286,0.0,1.0,75,0.00,,FEW070,0.01,VWS V14.00,2013-08-11 02:38:00,
2013-08-10 22:43:00,68.5,60.6,30.01,WNW,286,0.0,0.0,76,0.00,,FEW070,0.01,VWS V14.00,2013-08-11 02:43:00,
2013-08-10 22:48:00,68.2,60.7,30.01,WNW,286,0.0,0.0,77,0.00,,FEW070,0.01,VWS V14.00,2013-08-11 02:48:00,
2013-08-10 22:53:00,68.0,60.5,30.01,WNW,286,0.0,0.0,77,0.00,,FEW070,0.01,VWS V14.00,2013-08-11 02:53:00,
2013-08-10 22:58:00,67.9,60.4,30.01,WNW,286,0.0,0.0,77,0.00,,FEW070,0.01,VWS V14.00,2013-08-11 02:58:00,
2013-08-10 23:04:00,67.7,60.2,30.01,WNW,286,0.0,2.0,77,0.00,,CLR,0.01,VWS V14.00,2013-08-11 03:04:00,
2013-08-10 23:09:00,67.5,59.7,30.01,WNW,286,0.0,0.0,76,0.00,,CLR,0.01,VWS V14.00,2013-08-11 03:09:00,
2013-08-10 23:14:00,67.5,59.7,30.01,WNW,286,0.0,1.0,76,0.00,,CLR,0.01,VWS V14.00,2013-08-11 03:14:00,
2013-08-10 23:19:00,67.6,59.0,30.01,WNW,286,0.0,0.0,74,0.00,,CLR,0.01,VWS V14.00,2013-08-11 03:19:00,
2013-08-10 23:24:00,67.6,59.0,30.02,WNW,286,0.0,0.0,74,0.00,,CLR,0.01,VWS V14.00,2013-08-11 03:24:00,
2013-08-10 23:29:00,67.5,59.3,30.02,WNW,286,0.0,0.0,75,0.00,,CLR,0.01,VWS V14.00,2013-08-11 03:29:00,
2013-08-10 23:34:00,67.3,59.1,30.02,WNW,286,0.0,0.0,75,0.00,,CLR,0.01,VWS V14.00,2013-08-11 03:34:00,
2013-08-10 23:39:00,67.0,59.6,30.02,WNW,286,0.0,0.0,77,0.00,,CLR,0.01,VWS V14.00,2013-08-11 03:39:00,
2013-08-10 23:44:00,66.5,59.1,30.02,WNW,286,0.0,0.0,77,0.00,,CLR,0.01,VWS V14.00,2013-08-11 03:44:00,
2013-08-10 23:49:00,66.0,58.6,30.02,WNW,286,0.0,0.0,77,0.00,,CLR,0.01,VWS V14.00,2013-08-11 03:49:00,
2013-08-10 23:54:00,65.8,59.1,30.02,WNW,286,0.0,0.0,79,0.00,,CLR,0.01,VWS V14.00,2013-08-11 03:54:00,